createdAt,value
2023-03-21T00:01:12.053Z,9.27
2023-03-21T00:06:13.215Z,9.06
2023-03-21T00:11:14.417Z,8.81
2023-03-21T00:16:20.069Z,8.55
2023-03-21T00:26:16.704Z,8.54
2023-03-21T00:31:17.867Z,8.36
2023-03-21T00:36:19.146Z,8.28
2023-03-21T00:41:35.118Z,8.32
2023-03-21T00:46:23.301Z,8.20
2023-03-21T00:51:21.677Z,8.00
2023-03-21T00:56:20.939Z,7.79
2023-03-21T01:01:23.178Z,7.60
2023-03-21T01:06:22.368Z,7.62
2023-03-21T01:11:23.625Z,7.47
2023-03-21T01:16:25.895Z,7.41
2023-03-21T01:21:25.115Z,7.47
2023-03-21T01:26:26.277Z,7.49
2023-03-21T01:31:27.524Z,7.16
2023-03-21T01:36:28.744Z,7.05
2023-03-21T01:41:42.011Z,7.04
2023-03-21T01:46:32.291Z,7.05
2023-03-21T01:51:30.091Z,7.05
2023-03-21T01:56:31.337Z,7.20
2023-03-21T02:01:32.812Z,7.37
2023-03-21T02:06:33.992Z,7.49
2023-03-21T02:11:35.202Z,7.58
2023-03-21T02:16:36.534Z,7.62
2023-03-21T02:21:37.736Z,7.62
2023-03-21T02:26:42.334Z,7.53
2023-03-21T02:31:40.255Z,7.53
2023-03-21T02:36:41.463Z,7.63
2023-03-21T02:41:42.643Z,7.67
2023-03-21T02:46:49.066Z,7.82
2023-03-21T02:51:43.925Z,7.94
2023-03-21T02:56:45.093Z,7.89
2023-03-21T03:01:47.410Z,7.84
2023-03-21T03:06:47.712Z,7.89
2023-03-21T03:11:46.880Z,7.99
2023-03-21T03:16:48.340Z,7.81
2023-03-21T03:21:47.573Z,7.63
2023-03-21T03:26:48.765Z,7.49
2023-03-21T03:31:50.055Z,7.32
2023-03-21T03:36:51.472Z,7.08
2023-03-21T03:42:21.823Z,6.99
2023-03-21T03:46:52.978Z,7.01
2023-03-21T03:51:54.232Z,6.90
2023-03-21T03:56:55.403Z,6.95
2023-03-21T04:01:56.662Z,7.04
2023-03-21T04:06:58.195Z,7.07
2023-03-21T04:11:57.452Z,6.95
2023-03-21T04:16:58.650Z,6.91
2023-03-21T04:21:59.908Z,6.87
2023-03-21T04:27:01.148Z,6.69
2023-03-21T04:32:02.406Z,6.73
2023-03-21T04:37:06.569Z,6.43
2023-03-21T04:42:03.810Z,6.28
2023-03-21T04:47:04.970Z,6.25
2023-03-21T04:52:06.166Z,6.41
2023-03-21T04:57:07.305Z,6.26
2023-03-21T05:02:08.436Z,6.46
2023-03-21T05:07:09.613Z,6.36
2023-03-21T05:12:10.770Z,6.29
2023-03-21T05:17:12.063Z,6.40
2023-03-21T05:22:14.280Z,6.47
2023-03-21T05:27:13.422Z,6.43
2023-03-21T05:32:14.603Z,6.33
2023-03-21T05:37:16.347Z,6.53
2023-03-21T05:42:15.547Z,6.66
2023-03-21T05:47:16.788Z,6.87
2023-03-21T05:52:17.950Z,7.17
2023-03-21T05:57:19.174Z,7.78
2023-03-21T06:02:20.426Z,8.17
2023-03-21T06:07:22.643Z,8.36
2023-03-21T06:12:21.796Z,8.57
2023-03-21T06:17:22.958Z,8.84
2023-03-21T06:22:24.168Z,8.97
2023-03-21T06:27:25.383Z,9.15
2023-03-21T06:32:26.573Z,9.32
2023-03-21T06:37:27.735Z,9.49
2023-03-21T06:42:28.948Z,9.67
2023-03-21T06:47:30.104Z,9.83
2023-03-21T06:52:31.336Z,9.93
2023-03-21T06:57:32.573Z,10.15
2023-03-21T07:02:33.736Z,10.53
2023-03-21T07:07:34.813Z,10.78
2023-03-21T07:12:36.031Z,10.92
2023-03-21T07:17:38.178Z,11.14
2023-03-21T07:22:37.302Z,11.27
2023-03-21T07:27:41.117Z,11.46
2023-03-21T07:32:38.490Z,11.53
2023-03-21T07:37:39.718Z,11.67
2023-03-21T07:42:40.889Z,11.78
2023-03-21T07:47:42.003Z,10.99
2023-03-21T07:52:44.174Z,10.19
2023-03-21T07:57:42.353Z,9.99
2023-03-21T08:02:43.595Z,10.19
2023-03-21T08:07:44.799Z,10.18
2023-03-21T08:12:45.918Z,10.36
2023-03-21T08:17:47.052Z,10.59
2023-03-21T08:22:49.145Z,11.72
2023-03-21T08:27:48.252Z,11.71
2023-03-21T08:32:49.436Z,12.04
2023-03-21T08:37:50.604Z,11.85
2023-03-21T08:42:52.722Z,12.13
2023-03-21T08:47:51.967Z,12.11
2023-03-21T08:52:53.085Z,12.92
2023-03-21T08:57:54.174Z,13.43
2023-03-21T09:02:55.339Z,13.98
2023-03-21T09:07:56.423Z,13.67
2023-03-21T09:12:57.545Z,14.24
2023-03-21T09:17:58.722Z,13.04
2023-03-21T09:23:00.839Z,13.11
2023-03-21T09:27:59.974Z,13.27
2023-03-21T09:33:01.196Z,13.69
2023-03-21T09:38:02.401Z,14.01
2023-03-21T09:43:03.542Z,13.63
2023-03-21T09:48:04.717Z,13.49
2023-03-21T09:53:05.864Z,13.98
2023-03-21T09:58:07.969Z,13.94
2023-03-21T10:03:07.120Z,14.21
2023-03-21T10:08:08.249Z,14.04
2023-03-21T10:13:09.408Z,13.87
2023-03-21T10:18:11.511Z,14.10
2023-03-21T10:23:10.671Z,14.35
2023-03-21T10:28:11.785Z,14.74
2023-03-21T10:33:12.972Z,14.54
2023-03-21T10:38:14.123Z,14.56
2023-03-21T10:43:19.234Z,15.61
2023-03-21T10:48:17.533Z,15.93
2023-03-21T10:53:16.782Z,16.41
2023-03-21T10:58:17.939Z,16.96
2023-03-21T11:03:19.087Z,16.65
2023-03-21T11:08:21.245Z,15.81
2023-03-21T11:13:20.367Z,15.74
2023-03-21T11:18:21.466Z,15.97
2023-03-21T11:23:23.571Z,15.89
2023-03-21T11:28:22.711Z,15.46
2023-03-21T11:33:24.810Z,15.82
2023-03-21T11:38:23.922Z,15.59
2023-03-21T11:43:27.069Z,15.85
2023-03-21T11:48:26.524Z,15.66
2023-03-21T11:53:27.649Z,15.81
2023-03-21T11:58:28.826Z,15.30
2023-03-21T12:03:38.127Z,15.56
2023-03-21T12:08:31.003Z,15.51
2023-03-21T12:13:30.150Z,15.20
2023-03-21T12:18:31.325Z,15.13
2023-03-21T12:23:32.554Z,15.41
2023-03-21T12:28:33.750Z,15.68
2023-03-21T12:33:35.904Z,16.07
2023-03-21T12:38:35.041Z,15.68
2023-03-21T12:43:36.213Z,15.59
2023-03-21T12:48:38.432Z,15.49
2023-03-21T12:53:37.975Z,15.01
2023-03-21T12:58:37.054Z,15.12
2023-03-21T13:03:40.206Z,14.88
2023-03-21T13:08:37.812Z,14.98
2023-03-21T13:13:38.917Z,15.19
2023-03-21T13:18:41.064Z,15.42
2023-03-21T13:23:40.194Z,15.09
2023-03-21T13:28:41.344Z,15.54
2023-03-21T13:33:41.504Z,15.56
2023-03-21T13:38:42.647Z,15.57
2023-03-21T13:43:43.809Z,15.42
2023-03-21T13:48:57.869Z,15.64
2023-03-21T13:53:44.971Z,15.63
2023-03-21T13:58:46.129Z,15.67
2023-03-21T14:03:48.250Z,15.54
2023-03-21T14:08:47.372Z,15.76
2023-03-21T14:13:51.495Z,15.75
2023-03-21T14:18:54.969Z,15.97
2023-03-21T14:23:49.768Z,15.88
2023-03-21T14:28:52.891Z,15.66
2023-03-21T14:33:52.049Z,15.85
2023-03-21T14:38:53.196Z,15.79
2023-03-21T14:43:54.372Z,15.82
2023-03-21T14:48:56.510Z,15.84
2023-03-21T14:53:55.683Z,15.78
2023-03-21T14:58:56.844Z,15.81
2023-03-21T15:04:00.393Z,15.48
2023-03-21T15:08:57.759Z,15.51
2023-03-21T15:13:58.916Z,15.52
2023-03-21T15:19:00.016Z,15.41
2023-03-21T15:24:04.123Z,15.57
2023-03-21T15:29:01.240Z,15.61
2023-03-21T15:34:02.421Z,15.60
2023-03-21T15:39:04.405Z,15.60
2023-03-21T15:44:04.720Z,15.92
2023-03-21T15:49:03.907Z,15.74
2023-03-21T15:54:05.074Z,15.45
2023-03-21T15:59:06.271Z,15.88
2023-03-21T16:04:07.458Z,15.92
2023-03-21T16:09:11.636Z,16.33
2023-03-21T16:14:09.739Z,16.31
2023-03-21T16:19:08.845Z,16.30
2023-03-21T16:24:11.073Z,15.60
2023-03-21T16:29:12.654Z,15.78
2023-03-21T16:34:12.379Z,15.48
2023-03-21T16:39:11.479Z,15.64
2023-03-21T16:44:13.591Z,15.57
2023-03-21T16:49:13.703Z,15.39
2023-03-21T16:54:13.018Z,15.27
2023-03-21T16:59:15.110Z,15.36
2023-03-21T17:04:14.214Z,15.48
2023-03-21T17:09:15.419Z,15.31
2023-03-21T17:14:17.284Z,15.17
2023-03-21T17:19:16.557Z,15.13
2023-03-21T17:24:18.785Z,14.86
2023-03-21T17:29:18.124Z,14.64
2023-03-21T17:34:24.405Z,14.50
2023-03-21T17:39:19.618Z,14.29
2023-03-21T17:44:20.814Z,14.04
2023-03-21T17:49:22.166Z,13.84
2023-03-21T17:54:23.458Z,13.49
2023-03-21T17:59:24.833Z,13.49
2023-03-21T18:04:24.163Z,13.58
2023-03-21T18:09:25.351Z,13.52
2023-03-21T18:14:28.893Z,13.44
2023-03-21T18:19:27.671Z,13.09
2023-03-21T18:24:26.926Z,12.88
2023-03-21T18:30:19.850Z,12.71
2023-03-21T18:34:28.120Z,12.70
2023-03-21T18:39:30.313Z,12.71
2023-03-21T18:44:29.751Z,12.69
2023-03-21T18:54:30.630Z,12.42
2023-03-21T18:59:31.109Z,12.31
2023-03-21T19:04:32.302Z,12.45
2023-03-21T19:09:32.071Z,12.45
2023-03-21T19:14:31.880Z,12.16
2023-03-21T19:19:32.447Z,12.05
2023-03-21T19:24:32.086Z,11.93
2023-03-21T19:29:32.587Z,11.89
2023-03-21T19:34:31.888Z,11.85
2023-03-21T19:39:33.308Z,11.59
2023-03-21T19:44:32.499Z,11.50
2023-03-21T19:50:00.745Z,11.20
2023-03-21T19:54:34.348Z,11.27
2023-03-21T19:59:34.577Z,11.31
2023-03-21T20:04:35.009Z,11.11
2023-03-21T20:09:51.468Z,11.01
2023-03-21T20:14:37.266Z,10.86
2023-03-21T20:19:38.925Z,10.73
2023-03-21T20:24:36.567Z,10.66
2023-03-21T20:30:08.138Z,10.62
2023-03-21T20:34:38.237Z,10.52
2023-03-21T20:39:37.916Z,10.36
2023-03-21T20:44:57.905Z,10.42
2023-03-21T20:49:38.665Z,10.37
2023-03-21T20:54:43.746Z,10.47
2023-03-21T20:59:39.223Z,10.26
2023-03-21T21:04:59.925Z,10.10
2023-03-21T21:09:41.897Z,10.09
2023-03-21T21:14:41.502Z,9.99
2023-03-21T21:19:40.856Z,10.01
2023-03-21T21:24:42.209Z,10.09
2023-03-21T21:29:43.545Z,10.07
2023-03-21T21:34:44.805Z,10.07
2023-03-21T21:39:46.022Z,9.86
2023-03-21T21:44:47.548Z,9.94
2023-03-21T21:49:50.547Z,9.68
2023-03-21T21:54:47.660Z,9.56
2023-03-21T21:59:48.868Z,9.66
2023-03-21T22:04:49.981Z,9.34
2023-03-21T22:09:52.090Z,9.18
2023-03-21T22:14:50.209Z,9.25
2023-03-21T22:20:04.735Z,9.32
2023-03-21T22:24:51.561Z,9.27
2023-03-21T22:29:53.790Z,9.10
2023-03-21T22:34:53.046Z,9.10
2023-03-21T22:39:54.230Z,9.05
2023-03-21T22:44:55.409Z,9.09
2023-03-21T22:49:57.542Z,8.99
2023-03-21T22:54:56.825Z,9.15
2023-03-21T22:59:56.981Z,9.12
2023-03-21T23:04:59.107Z,9.06
2023-03-21T23:09:58.309Z,9.23
2023-03-21T23:15:00.858Z,9.27
2023-03-21T23:20:00.220Z,9.28
2023-03-21T23:24:59.345Z,9.24
2023-03-21T23:30:00.455Z,9.46
2023-03-21T23:35:02.747Z,9.60
2023-03-21T23:40:01.916Z,9.70
2023-03-21T23:45:03.088Z,9.79
2023-03-21T23:50:03.204Z,9.78
2023-03-21T23:55:04.324Z,10.32
